sensor_id;sensor_type;location;lat;lon;timestamp;P1;durP1;ratioP1;P2;durP2;ratioP2
43297;SDS011;28892;55.640;37.532;2023-04-15T00:01:59;4.50;;;2.10;;
43297;SDS011;28892;55.640;37.532;2023-04-15T00:04:25;3.80;;;1.97;;
43297;SDS011;28892;55.640;37.532;2023-04-15T00:06:53;4.40;;;2.10;;
43297;SDS011;28892;55.640;37.532;2023-04-15T00:09:19;2.13;;;1.17;;
43297;SDS011;28892;55.640;37.532;2023-04-15T00:11:46;6.60;;;2.03;;
43297;SDS011;28892;55.640;37.532;2023-04-15T00:14:12;7.07;;;2.10;;
43297;SDS011;28892;55.640;37.532;2023-04-15T00:16:38;4.67;;;2.30;;
43297;SDS011;28892;55.640;37.532;2023-04-15T00:19:03;3.70;;;2.00;;
43297;SDS011;28892;55.640;37.532;2023-04-15T00:21:29;2.80;;;1.60;;
43297;SDS011;28892;55.640;37.532;2023-04-15T00:23:55;1.43;;;1.30;;
43297;SDS011;28892;55.640;37.532;2023-04-15T00:26:21;3.03;;;1.30;;
43297;SDS011;28892;55.640;37.532;2023-04-15T00:28:48;2.77;;;1.50;;
43297;SDS011;28892;55.640;37.532;2023-04-15T00:31:14;3.67;;;1.90;;
43297;SDS011;28892;55.640;37.532;2023-04-15T00:33:40;4.00;;;1.30;;
43297;SDS011;28892;55.640;37.532;2023-04-15T00:36:06;2.60;;;1.50;;
43297;SDS011;28892;55.640;37.532;2023-04-15T00:38:32;3.83;;;2.10;;
43297;SDS011;28892;55.640;37.532;2023-04-15T00:40:58;8.57;;;2.00;;
43297;SDS011;28892;55.640;37.532;2023-04-15T00:43:24;3.47;;;1.90;;
43297;SDS011;28892;55.640;37.532;2023-04-15T00:45:51;2.33;;;1.40;;
43297;SDS011;28892;55.640;37.532;2023-04-15T00:48:19;4.87;;;2.03;;
43297;SDS011;28892;55.640;37.532;2023-04-15T00:50:45;3.90;;;1.57;;
43297;SDS011;28892;55.640;37.532;2023-04-15T00:53:11;4.63;;;1.87;;
43297;SDS011;28892;55.640;37.532;2023-04-15T00:55:37;4.27;;;1.90;;
43297;SDS011;28892;55.640;37.532;2023-04-15T00:58:04;2.47;;;1.80;;
43297;SDS011;28892;55.640;37.532;2023-04-15T01:00:30;2.80;;;1.80;;
43297;SDS011;28892;55.640;37.532;2023-04-15T01:02:57;4.70;;;1.43;;
43297;SDS011;28892;55.640;37.532;2023-04-15T01:05:23;2.80;;;1.13;;
43297;SDS011;28892;55.640;37.532;2023-04-15T01:07:49;3.73;;;1.73;;
43297;SDS011;28892;55.640;37.532;2023-04-15T01:10:15;5.67;;;1.80;;
43297;SDS011;28892;55.640;37.532;2023-04-15T01:12:41;3.40;;;1.90;;
43297;SDS011;28892;55.640;37.532;2023-04-15T01:15:07;4.73;;;1.90;;
43297;SDS011;28892;55.640;37.532;2023-04-15T01:17:35;3.07;;;1.70;;
43297;SDS011;28892;55.640;37.532;2023-04-15T01:20:01;4.07;;;1.37;;
43297;SDS011;28892;55.640;37.532;2023-04-15T01:22:28;3.30;;;1.57;;
43297;SDS011;28892;55.640;37.532;2023-04-15T01:25:16;3.67;;;1.90;;
43297;SDS011;28892;55.640;37.532;2023-04-15T01:27:44;2.20;;;1.40;;
43297;SDS011;28892;55.640;37.532;2023-04-15T01:30:09;4.23;;;1.70;;
43297;SDS011;28892;55.640;37.532;2023-04-15T01:32:35;1.93;;;1.67;;
43297;SDS011;28892;55.640;37.532;2023-04-15T01:35:20;2.43;;;1.20;;
43297;SDS011;28892;55.640;37.532;2023-04-15T01:37:46;5.37;;;1.70;;
43297;SDS011;28892;55.640;37.532;2023-04-15T01:40:15;2.47;;;1.47;;
43297;SDS011;28892;55.640;37.532;2023-04-15T01:42:43;2.87;;;1.63;;
43297;SDS011;28892;55.640;37.532;2023-04-15T01:45:10;3.40;;;1.87;;
43297;SDS011;28892;55.640;37.532;2023-04-15T01:47:37;2.20;;;1.57;;
43297;SDS011;28892;55.640;37.532;2023-04-15T01:50:05;5.07;;;1.73;;
43297;SDS011;28892;55.640;37.532;2023-04-15T01:52:32;4.27;;;2.03;;
43297;SDS011;28892;55.640;37.532;2023-04-15T01:54:59;2.90;;;1.50;;
43297;SDS011;28892;55.640;37.532;2023-04-15T01:57:26;6.07;;;2.07;;
43297;SDS011;28892;55.640;37.532;2023-04-15T01:59:53;4.43;;;2.20;;
43297;SDS011;28892;55.640;37.532;2023-04-15T02:02:21;3.57;;;1.30;;
43297;SDS011;28892;55.640;37.532;2023-04-15T02:04:48;3.40;;;1.90;;
43297;SDS011;28892;55.640;37.532;2023-04-15T02:07:16;5.00;;;1.93;;
43297;SDS011;28892;55.640;37.532;2023-04-15T02:09:43;3.67;;;1.90;;
43297;SDS011;28892;55.640;37.532;2023-04-15T02:12:11;2.53;;;1.60;;
43297;SDS011;28892;55.640;37.532;2023-04-15T02:14:38;8.03;;;1.70;;
43297;SDS011;28892;55.640;37.532;2023-04-15T02:17:05;4.63;;;2.00;;
43297;SDS011;28892;55.640;37.532;2023-04-15T02:19:33;3.23;;;1.90;;
43297;SDS011;28892;55.640;37.532;2023-04-15T02:22:03;3.33;;;2.20;;
43297;SDS011;28892;55.640;37.532;2023-04-15T02:24:30;7.43;;;2.07;;
43297;SDS011;28892;55.640;37.532;2023-04-15T02:26:57;4.53;;;2.27;;
43297;SDS011;28892;55.640;37.532;2023-04-15T02:29:24;3.53;;;2.20;;
43297;SDS011;28892;55.640;37.532;2023-04-15T02:31:51;5.13;;;2.10;;
43297;SDS011;28892;55.640;37.532;2023-04-15T02:34:18;3.30;;;2.07;;
43297;SDS011;28892;55.640;37.532;2023-04-15T02:36:45;5.27;;;2.20;;
43297;SDS011;28892;55.640;37.532;2023-04-15T02:39:14;2.20;;;1.67;;
43297;SDS011;28892;55.640;37.532;2023-04-15T02:41:44;3.20;;;1.97;;
43297;SDS011;28892;55.640;37.532;2023-04-15T02:44:14;4.57;;;2.20;;
43297;SDS011;28892;55.640;37.532;2023-04-15T02:46:41;3.63;;;1.70;;
43297;SDS011;28892;55.640;37.532;2023-04-15T02:49:08;8.33;;;2.33;;
43297;SDS011;28892;55.640;37.532;2023-04-15T02:51:36;4.57;;;2.10;;
43297;SDS011;28892;55.640;37.532;2023-04-15T02:54:04;4.87;;;2.27;;
43297;SDS011;28892;55.640;37.532;2023-04-15T02:56:31;6.00;;;2.80;;
43297;SDS011;28892;55.640;37.532;2023-04-15T02:58:58;6.67;;;2.30;;
43297;SDS011;28892;55.640;37.532;2023-04-15T03:01:25;8.03;;;2.83;;
43297;SDS011;28892;55.640;37.532;2023-04-15T03:04:18;3.15;;;1.63;;
43297;SDS011;28892;55.640;37.532;2023-04-15T03:06:48;6.63;;;2.40;;
43297;SDS011;28892;55.640;37.532;2023-04-15T03:09:17;4.87;;;2.20;;
43297;SDS011;28892;55.640;37.532;2023-04-15T03:11:50;5.10;;;2.75;;
43297;SDS011;28892;55.640;37.532;2023-04-15T03:14:21;3.70;;;2.10;;
43297;SDS011;28892;55.640;37.532;2023-04-15T03:16:49;4.10;;;2.67;;
43297;SDS011;28892;55.640;37.532;2023-04-15T03:19:18;8.43;;;3.07;;
43297;SDS011;28892;55.640;37.532;2023-04-15T03:21:47;4.87;;;3.03;;
43297;SDS011;28892;55.640;37.532;2023-04-15T03:24:15;4.60;;;2.23;;
43297;SDS011;28892;55.640;37.532;2023-04-15T03:26:42;7.33;;;2.50;;
43297;SDS011;28892;55.640;37.532;2023-04-15T03:29:12;8.33;;;2.20;;
43297;SDS011;28892;55.640;37.532;2023-04-15T03:31:40;5.83;;;1.93;;
43297;SDS011;28892;55.640;37.532;2023-04-15T03:34:07;4.93;;;2.20;;
43297;SDS011;28892;55.640;37.532;2023-04-15T03:36:35;8.93;;;2.10;;
43297;SDS011;28892;55.640;37.532;2023-04-15T03:39:02;2.83;;;1.50;;
43297;SDS011;28892;55.640;37.532;2023-04-15T03:41:29;8.43;;;2.40;;
43297;SDS011;28892;55.640;37.532;2023-04-15T03:43:56;6.40;;;2.70;;
43297;SDS011;28892;55.640;37.532;2023-04-15T03:46:26;4.87;;;1.97;;
43297;SDS011;28892;55.640;37.532;2023-04-15T03:48:53;4.37;;;1.50;;
43297;SDS011;28892;55.640;37.532;2023-04-15T03:51:20;4.87;;;2.10;;
43297;SDS011;28892;55.640;37.532;2023-04-15T03:53:47;4.53;;;1.90;;
43297;SDS011;28892;55.640;37.532;2023-04-15T03:56:13;6.80;;;1.97;;
43297;SDS011;28892;55.640;37.532;2023-04-15T03:58:41;6.40;;;2.03;;
43297;SDS011;28892;55.640;37.532;2023-04-15T04:01:08;5.37;;;1.90;;
43297;SDS011;28892;55.640;37.532;2023-04-15T04:03:35;4.33;;;1.87;;
43297;SDS011;28892;55.640;37.532;2023-04-15T04:06:03;5.07;;;2.20;;
43297;SDS011;28892;55.640;37.532;2023-04-15T04:08:30;6.10;;;2.43;;
43297;SDS011;28892;55.640;37.532;2023-04-15T04:10:57;4.47;;;1.93;;
43297;SDS011;28892;55.640;37.532;2023-04-15T04:13:24;5.87;;;1.87;;
43297;SDS011;28892;55.640;37.532;2023-04-15T04:15:51;13.60;;;2.37;;
43297;SDS011;28892;55.640;37.532;2023-04-15T04:18:18;4.83;;;1.90;;
43297;SDS011;28892;55.640;37.532;2023-04-15T04:20:45;6.00;;;2.10;;
43297;SDS011;28892;55.640;37.532;2023-04-15T04:23:12;5.17;;;2.07;;
43297;SDS011;28892;55.640;37.532;2023-04-15T04:25:39;5.93;;;2.17;;
43297;SDS011;28892;55.640;37.532;2023-04-15T04:28:06;6.40;;;2.17;;
43297;SDS011;28892;55.640;37.532;2023-04-15T04:30:34;4.83;;;1.90;;
43297;SDS011;28892;55.640;37.532;2023-04-15T04:33:01;3.47;;;1.73;;
43297;SDS011;28892;55.640;37.532;2023-04-15T04:35:28;4.07;;;2.23;;
43297;SDS011;28892;55.640;37.532;2023-04-15T04:37:55;3.30;;;1.90;;
43297;SDS011;28892;55.640;37.532;2023-04-15T04:40:22;9.80;;;2.03;;
43297;SDS011;28892;55.640;37.532;2023-04-15T04:42:49;3.50;;;1.87;;
43297;SDS011;28892;55.640;37.532;2023-04-15T04:45:16;6.63;;;2.70;;
43297;SDS011;28892;55.640;37.532;2023-04-15T04:47:44;8.30;;;3.00;;
43297;SDS011;28892;55.640;37.532;2023-04-15T04:50:12;3.63;;;1.77;;
43297;SDS011;28892;55.640;37.532;2023-04-15T04:52:39;7.47;;;1.80;;
43297;SDS011;28892;55.640;37.532;2023-04-15T04:55:06;7.17;;;2.23;;
43297;SDS011;28892;55.640;37.532;2023-04-15T04:57:34;5.07;;;1.60;;
43297;SDS011;28892;55.640;37.532;2023-04-15T05:00:05;2.13;;;1.27;;
43297;SDS011;28892;55.640;37.532;2023-04-15T05:02:37;4.53;;;2.13;;
43297;SDS011;28892;55.640;37.532;2023-04-15T05:05:04;6.40;;;2.00;;
43297;SDS011;28892;55.640;37.532;2023-04-15T05:07:32;6.37;;;1.93;;
43297;SDS011;28892;55.640;37.532;2023-04-15T05:10:22;5.10;;;2.13;;
43297;SDS011;28892;55.640;37.532;2023-04-15T05:12:49;5.07;;;2.00;;
43297;SDS011;28892;55.640;37.532;2023-04-15T05:15:17;4.83;;;2.00;;
43297;SDS011;28892;55.640;37.532;2023-04-15T05:17:44;6.30;;;2.93;;
43297;SDS011;28892;55.640;37.532;2023-04-15T05:20:13;3.90;;;1.80;;
43297;SDS011;28892;55.640;37.532;2023-04-15T05:22:41;2.63;;;1.90;;
43297;SDS011;28892;55.640;37.532;2023-04-15T05:25:08;4.00;;;2.00;;
43297;SDS011;28892;55.640;37.532;2023-04-15T05:27:35;5.43;;;2.00;;
43297;SDS011;28892;55.640;37.532;2023-04-15T05:30:02;9.13;;;1.93;;
43297;SDS011;28892;55.640;37.532;2023-04-15T05:32:29;2.10;;;1.50;;
43297;SDS011;28892;55.640;37.532;2023-04-15T05:34:56;4.90;;;1.97;;
43297;SDS011;28892;55.640;37.532;2023-04-15T05:37:23;3.13;;;2.00;;
43297;SDS011;28892;55.640;37.532;2023-04-15T05:39:50;2.40;;;1.50;;
43297;SDS011;28892;55.640;37.532;2023-04-15T05:42:18;2.03;;;1.13;;
43297;SDS011;28892;55.640;37.532;2023-04-15T05:44:44;2.00;;;1.40;;
43297;SDS011;28892;55.640;37.532;2023-04-15T05:47:12;2.10;;;1.50;;
43297;SDS011;28892;55.640;37.532;2023-04-15T05:49:39;5.97;;;1.57;;
43297;SDS011;28892;55.640;37.532;2023-04-15T05:52:06;1.30;;;1.20;;
43297;SDS011;28892;55.640;37.532;2023-04-15T05:54:33;6.87;;;2.10;;
43297;SDS011;28892;55.640;37.532;2023-04-15T05:57:00;3.93;;;2.03;;
43297;SDS011;28892;55.640;37.532;2023-04-15T05:59:27;4.37;;;1.70;;
43297;SDS011;28892;55.640;37.532;2023-04-15T06:01:54;1.70;;;1.50;;
43297;SDS011;28892;55.640;37.532;2023-04-15T06:04:21;5.30;;;1.80;;
43297;SDS011;28892;55.640;37.532;2023-04-15T06:06:48;3.17;;;2.03;;
43297;SDS011;28892;55.640;37.532;2023-04-15T06:09:15;5.90;;;2.50;;
43297;SDS011;28892;55.640;37.532;2023-04-15T06:11:42;5.43;;;2.28;;
43297;SDS011;28892;55.640;37.532;2023-04-15T06:14:09;5.07;;;1.92;;
43297;SDS011;28892;55.640;37.532;2023-04-15T06:16:36;4.30;;;1.50;;
43297;SDS011;28892;55.640;37.532;2023-04-15T06:19:03;2.10;;;1.40;;
43297;SDS011;28892;55.640;37.532;2023-04-15T06:21:30;4.63;;;2.03;;
43297;SDS011;28892;55.640;37.532;2023-04-15T06:23:58;3.83;;;1.58;;
43297;SDS011;28892;55.640;37.532;2023-04-15T06:26:27;4.82;;;1.90;;
43297;SDS011;28892;55.640;37.532;2023-04-15T06:28:55;8.35;;;2.65;;
43297;SDS011;28892;55.640;37.532;2023-04-15T06:31:22;7.28;;;2.67;;
43297;SDS011;28892;55.640;37.532;2023-04-15T06:33:49;7.22;;;2.60;;
43297;SDS011;28892;55.640;37.532;2023-04-15T06:36:16;6.97;;;3.15;;
43297;SDS011;28892;55.640;37.532;2023-04-15T06:38:43;4.95;;;2.00;;
43297;SDS011;28892;55.640;37.532;2023-04-15T06:41:10;4.50;;;2.40;;
43297;SDS011;28892;55.640;37.532;2023-04-15T06:43:37;4.05;;;1.80;;
43297;SDS011;28892;55.640;37.532;2023-04-15T06:46:05;3.63;;;2.35;;
43297;SDS011;28892;55.640;37.532;2023-04-15T06:48:32;8.30;;;2.65;;
43297;SDS011;28892;55.640;37.532;2023-04-15T06:51:01;8.25;;;2.47;;
43297;SDS011;28892;55.640;37.532;2023-04-15T06:53:29;5.05;;;2.80;;
43297;SDS011;28892;55.640;37.532;2023-04-15T06:55:56;7.57;;;2.50;;
43297;SDS011;28892;55.640;37.532;2023-04-15T06:58:23;4.20;;;1.92;;
43297;SDS011;28892;55.640;37.532;2023-04-15T07:00:51;5.50;;;2.08;;
43297;SDS011;28892;55.640;37.532;2023-04-15T07:03:18;5.25;;;2.17;;
43297;SDS011;28892;55.640;37.532;2023-04-15T07:05:48;7.20;;;2.10;;
43297;SDS011;28892;55.640;37.532;2023-04-15T07:08:15;2.95;;;2.10;;
43297;SDS011;28892;55.640;37.532;2023-04-15T07:10:42;5.20;;;2.40;;
43297;SDS011;28892;55.640;37.532;2023-04-15T07:13:09;2.15;;;1.60;;
43297;SDS011;28892;55.640;37.532;2023-04-15T07:15:36;3.70;;;1.83;;
43297;SDS011;28892;55.640;37.532;2023-04-15T07:18:06;4.47;;;2.30;;
43297;SDS011;28892;55.640;37.532;2023-04-15T07:20:38;3.65;;;1.85;;
43297;SDS011;28892;55.640;37.532;2023-04-15T07:23:05;6.70;;;1.88;;
43297;SDS011;28892;55.640;37.532;2023-04-15T07:25:33;3.53;;;2.00;;
43297;SDS011;28892;55.640;37.532;2023-04-15T07:28:00;8.40;;;2.05;;
43297;SDS011;28892;55.640;37.532;2023-04-15T07:30:28;7.75;;;2.55;;
43297;SDS011;28892;55.640;37.532;2023-04-15T07:32:55;5.18;;;2.10;;
43297;SDS011;28892;55.640;37.532;2023-04-15T07:35:22;5.45;;;2.20;;
43297;SDS011;28892;55.640;37.532;2023-04-15T07:37:49;7.22;;;2.70;;
43297;SDS011;28892;55.640;37.532;2023-04-15T07:40:16;3.50;;;2.03;;
43297;SDS011;28892;55.640;37.532;2023-04-15T07:42:43;6.20;;;2.13;;
43297;SDS011;28892;55.640;37.532;2023-04-15T07:45:10;4.47;;;1.60;;
43297;SDS011;28892;55.640;37.532;2023-04-15T07:47:38;4.00;;;1.98;;
43297;SDS011;28892;55.640;37.532;2023-04-15T07:50:06;6.13;;;2.00;;
43297;SDS011;28892;55.640;37.532;2023-04-15T07:52:34;2.47;;;1.40;;
43297;SDS011;28892;55.640;37.532;2023-04-15T07:55:07;3.42;;;2.30;;
43297;SDS011;28892;55.640;37.532;2023-04-15T08:01:00;3.80;;;2.28;;
43297;SDS011;28892;55.640;37.532;2023-04-15T08:03:33;2.88;;;2.00;;
43297;SDS011;28892;55.640;37.532;2023-04-15T08:06:00;4.07;;;2.25;;
43297;SDS011;28892;55.640;37.532;2023-04-15T08:08:27;8.38;;;2.80;;
43297;SDS011;28892;55.640;37.532;2023-04-15T08:10:54;6.30;;;2.67;;
43297;SDS011;28892;55.640;37.532;2023-04-15T08:13:21;6.47;;;2.35;;
43297;SDS011;28892;55.640;37.532;2023-04-15T08:15:52;3.45;;;1.98;;
43297;SDS011;28892;55.640;37.532;2023-04-15T08:18:49;2.58;;;2.08;;
43297;SDS011;28892;55.640;37.532;2023-04-15T08:21:18;4.83;;;1.87;;
43297;SDS011;28892;55.640;37.532;2023-04-15T08:23:45;7.55;;;3.13;;
43297;SDS011;28892;55.640;37.532;2023-04-15T08:26:13;4.35;;;1.92;;
43297;SDS011;28892;55.640;37.532;2023-04-15T08:28:41;7.30;;;2.65;;
43297;SDS011;28892;55.640;37.532;2023-04-15T08:31:09;9.70;;;2.42;;
43297;SDS011;28892;55.640;37.532;2023-04-15T08:33:37;3.58;;;2.35;;
43297;SDS011;28892;55.640;37.532;2023-04-15T08:36:05;5.50;;;2.72;;
43297;SDS011;28892;55.640;37.532;2023-04-15T08:38:34;6.35;;;2.88;;
43297;SDS011;28892;55.640;37.532;2023-04-15T08:41:05;6.40;;;3.10;;
43297;SDS011;28892;55.640;37.532;2023-04-15T08:43:40;4.90;;;2.58;;
43297;SDS011;28892;55.640;37.532;2023-04-15T08:46:17;2.70;;;1.80;;
43297;SDS011;28892;55.640;37.532;2023-04-15T08:48:46;6.95;;;2.97;;
43297;SDS011;28892;55.640;37.532;2023-04-15T08:51:15;3.30;;;2.30;;
43297;SDS011;28892;55.640;37.532;2023-04-15T08:53:43;6.15;;;2.55;;
43297;SDS011;28892;55.640;37.532;2023-04-15T08:56:15;5.57;;;2.17;;
43297;SDS011;28892;55.640;37.532;2023-04-15T08:58:42;8.55;;;2.88;;
43297;SDS011;28892;55.640;37.532;2023-04-15T09:01:13;5.40;;;2.33;;
43297;SDS011;28892;55.640;37.532;2023-04-15T09:03:43;5.07;;;2.53;;
43297;SDS011;28892;55.640;37.532;2023-04-15T09:06:15;3.60;;;1.95;;
43297;SDS011;28892;55.640;37.532;2023-04-15T09:08:43;3.78;;;2.42;;
43297;SDS011;28892;55.640;37.532;2023-04-15T09:11:10;5.82;;;2.05;;
43297;SDS011;28892;55.640;37.532;2023-04-15T09:13:37;6.93;;;2.53;;
43297;SDS011;28892;55.640;37.532;2023-04-15T09:16:05;7.47;;;2.63;;
43297;SDS011;28892;55.640;37.532;2023-04-15T09:18:34;4.32;;;2.35;;
43297;SDS011;28892;55.640;37.532;2023-04-15T09:21:09;6.93;;;2.60;;
43297;SDS011;28892;55.640;37.532;2023-04-15T09:23:41;3.92;;;2.78;;
43297;SDS011;28892;55.640;37.532;2023-04-15T09:26:34;10.00;;;3.28;;
43297;SDS011;28892;55.640;37.532;2023-04-15T09:29:06;6.05;;;2.63;;
43297;SDS011;28892;55.640;37.532;2023-04-15T09:31:38;4.75;;;2.30;;
43297;SDS011;28892;55.640;37.532;2023-04-15T09:34:06;5.22;;;2.70;;
43297;SDS011;28892;55.640;37.532;2023-04-15T09:36:52;3.58;;;2.42;;
43297;SDS011;28892;55.640;37.532;2023-04-15T09:39:21;5.05;;;2.85;;
43297;SDS011;28892;55.640;37.532;2023-04-15T09:42:05;7.50;;;2.33;;
43297;SDS011;28892;55.640;37.532;2023-04-15T09:44:51;3.55;;;2.17;;
43297;SDS011;28892;55.640;37.532;2023-04-15T09:47:31;5.10;;;2.42;;
43297;SDS011;28892;55.640;37.532;2023-04-15T09:49:58;5.53;;;2.38;;
43297;SDS011;28892;55.640;37.532;2023-04-15T09:52:29;7.10;;;2.40;;
43297;SDS011;28892;55.640;37.532;2023-04-15T09:54:56;6.97;;;2.72;;
43297;SDS011;28892;55.640;37.532;2023-04-15T09:57:33;5.88;;;1.70;;
43297;SDS011;28892;55.640;37.532;2023-04-15T10:00:05;5.63;;;2.47;;
43297;SDS011;28892;55.640;37.532;2023-04-15T10:02:38;5.73;;;3.40;;
43297;SDS011;28892;55.640;37.532;2023-04-15T10:05:09;6.82;;;2.50;;
43297;SDS011;28892;55.640;37.532;2023-04-15T10:07:37;8.27;;;3.05;;
43297;SDS011;28892;55.640;37.532;2023-04-15T10:10:06;6.35;;;2.40;;
43297;SDS011;28892;55.640;37.532;2023-04-15T10:12:36;5.10;;;1.90;;
43297;SDS011;28892;55.640;37.532;2023-04-15T10:15:06;5.25;;;2.85;;
43297;SDS011;28892;55.640;37.532;2023-04-15T10:17:42;3.88;;;2.15;;
43297;SDS011;28892;55.640;37.532;2023-04-15T10:20:10;6.05;;;2.65;;
43297;SDS011;28892;55.640;37.532;2023-04-15T10:22:39;9.68;;;2.53;;
43297;SDS011;28892;55.640;37.532;2023-04-15T10:25:07;7.18;;;2.95;;
43297;SDS011;28892;55.640;37.532;2023-04-15T10:27:36;7.45;;;2.42;;
43297;SDS011;28892;55.640;37.532;2023-04-15T10:30:05;5.13;;;2.65;;
43297;SDS011;28892;55.640;37.532;2023-04-15T10:32:32;5.65;;;2.55;;
43297;SDS011;28892;55.640;37.532;2023-04-15T10:34:59;6.18;;;2.83;;
43297;SDS011;28892;55.640;37.532;2023-04-15T10:37:37;5.53;;;2.88;;
43297;SDS011;28892;55.640;37.532;2023-04-15T10:40:24;7.03;;;2.72;;
43297;SDS011;28892;55.640;37.532;2023-04-15T10:42:54;6.80;;;3.00;;
43297;SDS011;28892;55.640;37.532;2023-04-15T10:45:24;5.88;;;2.70;;
43297;SDS011;28892;55.640;37.532;2023-04-15T10:47:56;6.35;;;2.85;;
43297;SDS011;28892;55.640;37.532;2023-04-15T10:50:32;6.85;;;2.28;;
43297;SDS011;28892;55.640;37.532;2023-04-15T10:53:03;6.30;;;2.60;;
43297;SDS011;28892;55.640;37.532;2023-04-15T10:55:31;5.57;;;2.53;;
43297;SDS011;28892;55.640;37.532;2023-04-15T10:58:03;10.57;;;3.28;;
43297;SDS011;28892;55.640;37.532;2023-04-15T11:00:31;10.88;;;5.47;;
43297;SDS011;28892;55.640;37.532;2023-04-15T11:03:09;6.03;;;2.58;;
43297;SDS011;28892;55.640;37.532;2023-04-15T11:05:49;5.57;;;2.38;;
43297;SDS011;28892;55.640;37.532;2023-04-15T11:08:17;4.32;;;2.50;;
43297;SDS011;28892;55.640;37.532;2023-04-15T11:13:15;4.03;;;2.53;;
43297;SDS011;28892;55.640;37.532;2023-04-15T11:15:44;5.85;;;2.55;;
43297;SDS011;28892;55.640;37.532;2023-04-15T11:18:22;5.40;;;2.88;;
43297;SDS011;28892;55.640;37.532;2023-04-15T11:20:53;6.43;;;2.72;;
43297;SDS011;28892;55.640;37.532;2023-04-15T11:25:57;5.20;;;2.70;;
43297;SDS011;28892;55.640;37.532;2023-04-15T11:28:26;5.43;;;2.97;;
43297;SDS011;28892;55.640;37.532;2023-04-15T11:30:54;6.55;;;2.45;;
43297;SDS011;28892;55.640;37.532;2023-04-15T11:33:21;5.28;;;2.55;;
43297;SDS011;28892;55.640;37.532;2023-04-15T11:35:52;4.55;;;2.53;;
43297;SDS011;28892;55.640;37.532;2023-04-15T11:38:20;5.38;;;2.45;;
43297;SDS011;28892;55.640;37.532;2023-04-15T11:40:49;5.32;;;2.83;;
43297;SDS011;28892;55.640;37.532;2023-04-15T11:45:52;6.90;;;3.05;;
43297;SDS011;28892;55.640;37.532;2023-04-15T11:48:25;4.13;;;2.17;;
43297;SDS011;28892;55.640;37.532;2023-04-15T11:51:02;4.43;;;2.78;;
43297;SDS011;28892;55.640;37.532;2023-04-15T11:53:36;3.15;;;2.20;;
43297;SDS011;28892;55.640;37.532;2023-04-15T11:56:18;5.43;;;2.58;;
43297;SDS011;28892;55.640;37.532;2023-04-15T11:58:47;5.68;;;2.20;;
43297;SDS011;28892;55.640;37.532;2023-04-15T12:01:16;4.65;;;2.00;;
43297;SDS011;28892;55.640;37.532;2023-04-15T12:03:43;6.88;;;2.97;;
43297;SDS011;28892;55.640;37.532;2023-04-15T12:06:21;4.85;;;2.60;;
43297;SDS011;28892;55.640;37.532;2023-04-15T12:11:20;4.93;;;2.97;;
43297;SDS011;28892;55.640;37.532;2023-04-15T12:13:46;4.88;;;3.25;;
43297;SDS011;28892;55.640;37.532;2023-04-15T12:16:17;7.68;;;3.42;;
43297;SDS011;28892;55.640;37.532;2023-04-15T12:18:46;7.15;;;3.38;;
43297;SDS011;28892;55.640;37.532;2023-04-15T12:21:19;9.60;;;3.13;;
43297;SDS011;28892;55.640;37.532;2023-04-15T12:23:48;4.50;;;3.17;;
43297;SDS011;28892;55.640;37.532;2023-04-15T12:26:16;10.63;;;3.83;;
43297;SDS011;28892;55.640;37.532;2023-04-15T12:29:02;8.20;;;3.22;;
43297;SDS011;28892;55.640;37.532;2023-04-15T12:31:36;8.82;;;3.13;;
43297;SDS011;28892;55.640;37.532;2023-04-15T12:34:11;10.63;;;3.55;;
43297;SDS011;28892;55.640;37.532;2023-04-15T12:36:40;5.10;;;2.80;;
43297;SDS011;28892;55.640;37.532;2023-04-15T12:39:05;5.43;;;2.75;;
43297;SDS011;28892;55.640;37.532;2023-04-15T12:41:31;6.47;;;3.00;;
43297;SDS011;28892;55.640;37.532;2023-04-15T12:43:58;7.22;;;3.20;;
43297;SDS011;28892;55.640;37.532;2023-04-15T12:46:24;6.07;;;3.25;;
43297;SDS011;28892;55.640;37.532;2023-04-15T12:48:50;5.60;;;3.15;;
43297;SDS011;28892;55.640;37.532;2023-04-15T12:51:17;8.55;;;3.53;;
43297;SDS011;28892;55.640;37.532;2023-04-15T12:53:46;4.38;;;2.35;;
43297;SDS011;28892;55.640;37.532;2023-04-15T12:56:14;4.68;;;2.75;;
43297;SDS011;28892;55.640;37.532;2023-04-15T12:58:41;6.57;;;2.90;;
43297;SDS011;28892;55.640;37.532;2023-04-15T13:01:08;7.75;;;3.63;;
43297;SDS011;28892;55.640;37.532;2023-04-15T13:03:35;6.63;;;2.90;;
43297;SDS011;28892;55.640;37.532;2023-04-15T13:06:01;8.63;;;3.58;;
43297;SDS011;28892;55.640;37.532;2023-04-15T13:08:29;7.57;;;3.38;;
43297;SDS011;28892;55.640;37.532;2023-04-15T13:10:55;6.82;;;3.10;;
43297;SDS011;28892;55.640;37.532;2023-04-15T13:13:21;12.25;;;6.38;;
43297;SDS011;28892;55.640;37.532;2023-04-15T13:15:47;9.93;;;6.80;;
43297;SDS011;28892;55.640;37.532;2023-04-15T13:18:13;12.00;;;7.32;;
43297;SDS011;28892;55.640;37.532;2023-04-15T13:20:38;11.55;;;7.47;;
43297;SDS011;28892;55.640;37.532;2023-04-15T13:23:05;13.70;;;7.20;;
43297;SDS011;28892;55.640;37.532;2023-04-15T13:25:31;13.00;;;6.30;;
43297;SDS011;28892;55.640;37.532;2023-04-15T13:27:59;11.07;;;6.72;;
43297;SDS011;28892;55.640;37.532;2023-04-15T13:32:58;7.97;;;4.40;;
43297;SDS011;28892;55.640;37.532;2023-04-15T13:35:24;12.93;;;4.50;;
43297;SDS011;28892;55.640;37.532;2023-04-15T13:37:50;7.88;;;4.63;;
43297;SDS011;28892;55.640;37.532;2023-04-15T13:40:18;9.80;;;4.38;;
43297;SDS011;28892;55.640;37.532;2023-04-15T13:42:45;9.10;;;4.47;;
43297;SDS011;28892;55.640;37.532;2023-04-15T13:45:16;6.93;;;4.80;;
43297;SDS011;28892;55.640;37.532;2023-04-15T13:47:41;7.00;;;4.40;;
43297;SDS011;28892;55.640;37.532;2023-04-15T13:50:08;9.02;;;4.35;;
43297;SDS011;28892;55.640;37.532;2023-04-15T13:52:34;7.43;;;4.55;;
43297;SDS011;28892;55.640;37.532;2023-04-15T13:54:59;9.43;;;4.55;;
43297;SDS011;28892;55.640;37.532;2023-04-15T13:57:25;8.27;;;4.85;;
43297;SDS011;28892;55.640;37.532;2023-04-15T13:59:51;11.05;;;4.57;;
43297;SDS011;28892;55.640;37.532;2023-04-15T14:02:17;6.75;;;4.05;;
43297;SDS011;28892;55.640;37.532;2023-04-15T14:04:42;6.20;;;3.80;;
43297;SDS011;28892;55.640;37.532;2023-04-15T14:07:08;6.70;;;2.92;;
43297;SDS011;28892;55.640;37.532;2023-04-15T14:09:35;7.40;;;3.03;;
43297;SDS011;28892;55.640;37.532;2023-04-15T14:12:01;6.40;;;3.22;;
43297;SDS011;28892;55.640;37.532;2023-04-15T14:14:27;7.70;;;3.20;;
43297;SDS011;28892;55.640;37.532;2023-04-15T14:16:54;7.15;;;3.67;;
43297;SDS011;28892;55.640;37.532;2023-04-15T14:19:20;5.75;;;3.10;;
43297;SDS011;28892;55.640;37.532;2023-04-15T14:21:46;7.22;;;2.70;;
43297;SDS011;28892;55.640;37.532;2023-04-15T14:24:12;5.28;;;2.78;;
43297;SDS011;28892;55.640;37.532;2023-04-15T14:26:38;5.20;;;2.85;;
43297;SDS011;28892;55.640;37.532;2023-04-15T14:29:04;5.60;;;2.90;;
43297;SDS011;28892;55.640;37.532;2023-04-15T14:31:30;4.93;;;2.50;;
43297;SDS011;28892;55.640;37.532;2023-04-15T14:33:56;3.17;;;2.40;;
43297;SDS011;28892;55.640;37.532;2023-04-15T14:36:22;3.58;;;2.47;;
43297;SDS011;28892;55.640;37.532;2023-04-15T14:38:48;6.38;;;2.50;;
43297;SDS011;28892;55.640;37.532;2023-04-15T14:41:13;3.47;;;2.45;;
43297;SDS011;28892;55.640;37.532;2023-04-15T14:43:40;7.47;;;2.85;;
43297;SDS011;28892;55.640;37.532;2023-04-15T14:46:06;5.22;;;4.03;;
43297;SDS011;28892;55.640;37.532;2023-04-15T14:48:32;4.68;;;2.60;;
43297;SDS011;28892;55.640;37.532;2023-04-15T14:50:58;5.93;;;2.50;;
43297;SDS011;28892;55.640;37.532;2023-04-15T14:53:24;5.00;;;2.50;;
43297;SDS011;28892;55.640;37.532;2023-04-15T14:55:50;4.13;;;2.70;;
43297;SDS011;28892;55.640;37.532;2023-04-15T14:58:16;4.40;;;2.40;;